sensor_id;sensor_type;location;lat;lon;timestamp;temperature;humidity
22974;DHT22;11653;50.848;4.584;2024-01-15T00:01:34;3.00;99.90
22974;DHT22;11653;50.848;4.584;2024-01-15T00:04:00;3.10;99.90
22974;DHT22;11653;50.848;4.584;2024-01-15T00:06:25;3.00;99.90
22974;DHT22;11653;50.848;4.584;2024-01-15T00:08:52;3.00;99.90
22974;DHT22;11653;50.848;4.584;2024-01-15T00:11:18;3.00;99.90
22974;DHT22;11653;50.848;4.584;2024-01-15T00:13:43;3.00;99.90
22974;DHT22;11653;50.848;4.584;2024-01-15T00:16:09;3.00;99.90
22974;DHT22;11653;50.848;4.584;2024-01-15T00:18:35;2.90;99.90
22974;DHT22;11653;50.848;4.584;2024-01-15T00:21:01;3.00;99.90
22974;DHT22;11653;50.848;4.584;2024-01-15T00:23:27;3.00;99.90
22974;DHT22;11653;50.848;4.584;2024-01-15T00:25:52;3.00;99.90
22974;DHT22;11653;50.848;4.584;2024-01-15T00:28:18;3.00;99.90
22974;DHT22;11653;50.848;4.584;2024-01-15T00:30:44;3.00;99.90
22974;DHT22;11653;50.848;4.584;2024-01-15T00:33:09;3.00;99.90
22974;DHT22;11653;50.848;4.584;2024-01-15T00:35:37;3.00;99.90
22974;DHT22;11653;50.848;4.584;2024-01-15T00:38:03;3.10;99.90
22974;DHT22;11653;50.848;4.584;2024-01-15T00:40:29;3.10;99.90
22974;DHT22;11653;50.848;4.584;2024-01-15T00:42:54;3.10;99.90
22974;DHT22;11653;50.848;4.584;2024-01-15T00:45:20;3.10;99.90
22974;DHT22;11653;50.848;4.584;2024-01-15T00:47:46;3.10;99.90
22974;DHT22;11653;50.848;4.584;2024-01-15T00:50:12;3.00;99.90
22974;DHT22;11653;50.848;4.584;2024-01-15T00:52:37;3.00;99.90
22974;DHT22;11653;50.848;4.584;2024-01-15T00:55:03;3.10;99.90
22974;DHT22;11653;50.848;4.584;2024-01-15T00:57:29;3.20;99.90
22974;DHT22;11653;50.848;4.584;2024-01-15T00:59:56;3.30;99.90
22974;DHT22;11653;50.848;4.584;2024-01-15T01:02:21;3.30;99.90
22974;DHT22;11653;50.848;4.584;2024-01-15T01:04:47;3.30;99.90
22974;DHT22;11653;50.848;4.584;2024-01-15T01:07:13;3.40;99.90
22974;DHT22;11653;50.848;4.584;2024-01-15T01:09:38;3.30;99.90
22974;DHT22;11653;50.848;4.584;2024-01-15T01:12:04;3.30;99.90
22974;DHT22;11653;50.848;4.584;2024-01-15T01:14:30;3.30;99.90
22974;DHT22;11653;50.848;4.584;2024-01-15T01:16:55;3.30;99.90
22974;DHT22;11653;50.848;4.584;2024-01-15T01:19:21;3.40;99.90
22974;DHT22;11653;50.848;4.584;2024-01-15T01:21:47;3.40;99.90
22974;DHT22;11653;50.848;4.584;2024-01-15T01:24:12;3.40;99.90
22974;DHT22;11653;50.848;4.584;2024-01-15T01:26:38;3.40;99.90
22974;DHT22;11653;50.848;4.584;2024-01-15T01:29:04;3.40;99.90
22974;DHT22;11653;50.848;4.584;2024-01-15T01:31:29;3.40;99.90
22974;DHT22;11653;50.848;4.584;2024-01-15T01:33:55;3.40;99.90
22974;DHT22;11653;50.848;4.584;2024-01-15T01:36:21;3.40;99.90
22974;DHT22;11653;50.848;4.584;2024-01-15T01:38:46;3.40;99.90
22974;DHT22;11653;50.848;4.584;2024-01-15T01:41:12;3.40;99.90
22974;DHT22;11653;50.848;4.584;2024-01-15T01:43:38;3.40;99.90
22974;DHT22;11653;50.848;4.584;2024-01-15T01:46:04;3.40;99.90
22974;DHT22;11653;50.848;4.584;2024-01-15T01:48:31;3.40;99.90
22974;DHT22;11653;50.848;4.584;2024-01-15T01:50:59;3.50;99.90
22974;DHT22;11653;50.848;4.584;2024-01-15T01:53:26;3.60;99.90
22974;DHT22;11653;50.848;4.584;2024-01-15T01:55:53;3.50;99.90
22974;DHT22;11653;50.848;4.584;2024-01-15T01:58:19;3.50;99.90
22974;DHT22;11653;50.848;4.584;2024-01-15T02:00:46;3.60;99.90
22974;DHT22;11653;50.848;4.584;2024-01-15T02:03:12;3.50;99.90
22974;DHT22;11653;50.848;4.584;2024-01-15T02:05:39;3.50;99.90
22974;DHT22;11653;50.848;4.584;2024-01-15T02:08:05;3.50;99.90
22974;DHT22;11653;50.848;4.584;2024-01-15T02:10:31;3.40;99.90
22974;DHT22;11653;50.848;4.584;2024-01-15T02:12:57;3.50;99.90
22974;DHT22;11653;50.848;4.584;2024-01-15T02:15:23;3.40;99.90
22974;DHT22;11653;50.848;4.584;2024-01-15T02:17:59;3.40;99.90
22974;DHT22;11653;50.848;4.584;2024-01-15T02:20:25;3.40;99.90
22974;DHT22;11653;50.848;4.584;2024-01-15T02:22:51;3.40;99.90
22974;DHT22;11653;50.848;4.584;2024-01-15T02:25:18;3.40;99.90
22974;DHT22;11653;50.848;4.584;2024-01-15T02:27:44;3.40;99.90
22974;DHT22;11653;50.848;4.584;2024-01-15T02:30:11;3.40;99.90
22974;DHT22;11653;50.848;4.584;2024-01-15T02:32:37;3.50;99.90
22974;DHT22;11653;50.848;4.584;2024-01-15T02:35:04;3.40;99.90
22974;DHT22;11653;50.848;4.584;2024-01-15T02:37:29;3.50;99.90
22974;DHT22;11653;50.848;4.584;2024-01-15T02:39:55;3.50;99.90
22974;DHT22;11653;50.848;4.584;2024-01-15T02:42:21;3.50;99.90
22974;DHT22;11653;50.848;4.584;2024-01-15T02:44:46;3.60;99.90
22974;DHT22;11653;50.848;4.584;2024-01-15T02:47:14;3.60;99.90
22974;DHT22;11653;50.848;4.584;2024-01-15T02:49:40;3.60;99.90
22974;DHT22;11653;50.848;4.584;2024-01-15T02:52:06;3.60;99.90
22974;DHT22;11653;50.848;4.584;2024-01-15T02:54:31;3.60;99.90
22974;DHT22;11653;50.848;4.584;2024-01-15T02:56:57;3.60;99.90
22974;DHT22;11653;50.848;4.584;2024-01-15T02:59:22;3.60;99.90
22974;DHT22;11653;50.848;4.584;2024-01-15T03:01:48;3.60;99.90
22974;DHT22;11653;50.848;4.584;2024-01-15T03:04:14;3.60;99.90
22974;DHT22;11653;50.848;4.584;2024-01-15T03:06:39;3.60;99.90
22974;DHT22;11653;50.848;4.584;2024-01-15T03:09:05;3.60;99.90
22974;DHT22;11653;50.848;4.584;2024-01-15T03:11:40;3.60;99.90
22974;DHT22;11653;50.848;4.584;2024-01-15T03:14:06;3.60;99.90
22974;DHT22;11653;50.848;4.584;2024-01-15T03:16:32;3.70;99.90
22974;DHT22;11653;50.848;4.584;2024-01-15T03:18:57;3.80;99.90
22974;DHT22;11653;50.848;4.584;2024-01-15T03:21:23;3.70;99.90
22974;DHT22;11653;50.848;4.584;2024-01-15T03:23:49;3.70;99.90
22974;DHT22;11653;50.848;4.584;2024-01-15T03:26:14;3.70;99.90
22974;DHT22;11653;50.848;4.584;2024-01-15T03:28:40;3.70;99.90
22974;DHT22;11653;50.848;4.584;2024-01-15T03:31:07;3.80;99.90
22974;DHT22;11653;50.848;4.584;2024-01-15T03:33:33;3.80;99.90
22974;DHT22;11653;50.848;4.584;2024-01-15T03:35:59;3.80;99.90
22974;DHT22;11653;50.848;4.584;2024-01-15T03:38:24;3.80;99.90
22974;DHT22;11653;50.848;4.584;2024-01-15T03:40:50;3.80;99.90
22974;DHT22;11653;50.848;4.584;2024-01-15T03:43:15;3.80;99.90
22974;DHT22;11653;50.848;4.584;2024-01-15T03:45:41;3.70;99.90
22974;DHT22;11653;50.848;4.584;2024-01-15T03:48:07;3.80;99.90
22974;DHT22;11653;50.848;4.584;2024-01-15T03:50:32;3.80;99.90
22974;DHT22;11653;50.848;4.584;2024-01-15T03:52:58;3.80;99.90
22974;DHT22;11653;50.848;4.584;2024-01-15T03:55:24;3.80;99.90
22974;DHT22;11653;50.848;4.584;2024-01-15T03:57:49;3.80;99.90
22974;DHT22;11653;50.848;4.584;2024-01-15T04:00:15;3.80;99.90
22974;DHT22;11653;50.848;4.584;2024-01-15T04:02:43;3.80;99.90
22974;DHT22;11653;50.848;4.584;2024-01-15T04:05:09;3.70;99.90
22974;DHT22;11653;50.848;4.584;2024-01-15T04:07:35;3.70;99.90
22974;DHT22;11653;50.848;4.584;2024-01-15T04:10:00;3.80;99.90
22974;DHT22;11653;50.848;4.584;2024-01-15T04:12:26;3.70;99.90
22974;DHT22;11653;50.848;4.584;2024-01-15T04:14:52;3.70;99.90
22974;DHT22;11653;50.848;4.584;2024-01-15T04:17:17;3.60;99.90
22974;DHT22;11653;50.848;4.584;2024-01-15T04:19:46;3.60;99.90
22974;DHT22;11653;50.848;4.584;2024-01-15T04:22:13;3.60;99.90
22974;DHT22;11653;50.848;4.584;2024-01-15T04:24:39;3.60;99.90
22974;DHT22;11653;50.848;4.584;2024-01-15T04:27:05;3.60;99.90
22974;DHT22;11653;50.848;4.584;2024-01-15T04:29:31;3.60;99.90
22974;DHT22;11653;50.848;4.584;2024-01-15T04:31:56;3.60;99.90
22974;DHT22;11653;50.848;4.584;2024-01-15T04:34:22;3.50;99.90
22974;DHT22;11653;50.848;4.584;2024-01-15T04:36:47;3.50;99.90
22974;DHT22;11653;50.848;4.584;2024-01-15T04:39:13;3.50;99.90
22974;DHT22;11653;50.848;4.584;2024-01-15T04:41:39;3.50;99.90
22974;DHT22;11653;50.848;4.584;2024-01-15T04:44:04;3.40;99.90
22974;DHT22;11653;50.848;4.584;2024-01-15T04:46:30;3.40;99.90
22974;DHT22;11653;50.848;4.584;2024-01-15T04:48:56;3.30;99.90
22974;DHT22;11653;50.848;4.584;2024-01-15T04:51:21;3.30;99.90
22974;DHT22;11653;50.848;4.584;2024-01-15T04:53:47;3.20;99.90
22974;DHT22;11653;50.848;4.584;2024-01-15T04:56:13;3.20;99.90
22974;DHT22;11653;50.848;4.584;2024-01-15T04:58:38;3.20;99.90
22974;DHT22;11653;50.848;4.584;2024-01-15T05:01:04;3.30;99.90
22974;DHT22;11653;50.848;4.584;2024-01-15T05:03:29;3.30;99.90
22974;DHT22;11653;50.848;4.584;2024-01-15T05:05:55;3.30;99.90
22974;DHT22;11653;50.848;4.584;2024-01-15T05:08:21;3.30;99.90
22974;DHT22;11653;50.848;4.584;2024-01-15T05:10:47;3.30;99.90
22974;DHT22;11653;50.848;4.584;2024-01-15T05:13:13;3.30;99.90
22974;DHT22;11653;50.848;4.584;2024-01-15T05:15:39;3.30;99.90
22974;DHT22;11653;50.848;4.584;2024-01-15T05:18:05;3.40;99.90
22974;DHT22;11653;50.848;4.584;2024-01-15T05:20:30;3.30;99.90
22974;DHT22;11653;50.848;4.584;2024-01-15T05:22:56;3.30;99.90
22974;DHT22;11653;50.848;4.584;2024-01-15T05:25:22;3.30;99.90
22974;DHT22;11653;50.848;4.584;2024-01-15T05:27:48;3.30;99.90
22974;DHT22;11653;50.848;4.584;2024-01-15T05:30:14;3.30;99.90
22974;DHT22;11653;50.848;4.584;2024-01-15T05:32:39;3.20;99.90
22974;DHT22;11653;50.848;4.584;2024-01-15T05:35:05;3.10;99.90
22974;DHT22;11653;50.848;4.584;2024-01-15T05:37:31;3.10;99.90
22974;DHT22;11653;50.848;4.584;2024-01-15T05:39:57;3.00;99.90
22974;DHT22;11653;50.848;4.584;2024-01-15T05:42:22;2.90;99.90
22974;DHT22;11653;50.848;4.584;2024-01-15T05:44:48;3.00;99.90
22974;DHT22;11653;50.848;4.584;2024-01-15T05:47:14;2.90;99.90
22974;DHT22;11653;50.848;4.584;2024-01-15T05:49:39;2.90;99.90
22974;DHT22;11653;50.848;4.584;2024-01-15T05:52:05;3.00;99.90
22974;DHT22;11653;50.848;4.584;2024-01-15T05:54:31;3.00;99.90
22974;DHT22;11653;50.848;4.584;2024-01-15T05:56:57;2.90;99.90
22974;DHT22;11653;50.848;4.584;2024-01-15T05:59:23;2.80;99.90
22974;DHT22;11653;50.848;4.584;2024-01-15T06:01:48;2.80;99.90
22974;DHT22;11653;50.848;4.584;2024-01-15T06:04:14;2.80;99.90
22974;DHT22;11653;50.848;4.584;2024-01-15T06:06:39;2.70;99.90
22974;DHT22;11653;50.848;4.584;2024-01-15T06:09:05;2.70;99.90
22974;DHT22;11653;50.848;4.584;2024-01-15T06:11:34;2.70;99.90
22974;DHT22;11653;50.848;4.584;2024-01-15T06:14:00;2.70;99.90
22974;DHT22;11653;50.848;4.584;2024-01-15T06:16:26;2.70;99.90
22974;DHT22;11653;50.848;4.584;2024-01-15T06:18:52;2.70;99.90
22974;DHT22;11653;50.848;4.584;2024-01-15T06:21:17;2.80;99.90
22974;DHT22;11653;50.848;4.584;2024-01-15T06:23:43;2.80;99.90
22974;DHT22;11653;50.848;4.584;2024-01-15T06:26:11;2.80;99.90
22974;DHT22;11653;50.848;4.584;2024-01-15T06:28:36;2.70;99.90
22974;DHT22;11653;50.848;4.584;2024-01-15T06:31:02;2.70;99.90
22974;DHT22;11653;50.848;4.584;2024-01-15T06:33:28;2.70;99.90
22974;DHT22;11653;50.848;4.584;2024-01-15T06:35:54;2.60;99.90
22974;DHT22;11653;50.848;4.584;2024-01-15T06:38:19;2.50;99.90
22974;DHT22;11653;50.848;4.584;2024-01-15T06:40:45;2.50;99.90
22974;DHT22;11653;50.848;4.584;2024-01-15T06:43:14;2.50;99.90
22974;DHT22;11653;50.848;4.584;2024-01-15T06:45:40;2.40;99.90
22974;DHT22;11653;50.848;4.584;2024-01-15T06:48:06;2.50;99.90
22974;DHT22;11653;50.848;4.584;2024-01-15T06:50:33;2.50;99.90
22974;DHT22;11653;50.848;4.584;2024-01-15T06:52:59;2.40;99.90
22974;DHT22;11653;50.848;4.584;2024-01-15T06:55:24;2.40;99.90
22974;DHT22;11653;50.848;4.584;2024-01-15T06:57:51;2.40;99.90
22974;DHT22;11653;50.848;4.584;2024-01-15T07:00:17;2.40;99.90
22974;DHT22;11653;50.848;4.584;2024-01-15T07:02:43;2.40;99.90
22974;DHT22;11653;50.848;4.584;2024-01-15T07:05:09;2.50;99.90
22974;DHT22;11653;50.848;4.584;2024-01-15T07:07:35;2.50;99.90
22974;DHT22;11653;50.848;4.584;2024-01-15T07:10:01;2.50;99.90
22974;DHT22;11653;50.848;4.584;2024-01-15T07:12:27;2.50;99.90
22974;DHT22;11653;50.848;4.584;2024-01-15T07:14:54;2.50;99.90
22974;DHT22;11653;50.848;4.584;2024-01-15T07:17:20;2.50;99.90
22974;DHT22;11653;50.848;4.584;2024-01-15T07:19:46;2.40;99.90
22974;DHT22;11653;50.848;4.584;2024-01-15T07:22:12;2.40;99.90
22974;DHT22;11653;50.848;4.584;2024-01-15T07:24:38;2.40;99.90
22974;DHT22;11653;50.848;4.584;2024-01-15T07:27:04;2.40;99.90
22974;DHT22;11653;50.848;4.584;2024-01-15T07:29:30;2.40;99.90
22974;DHT22;11653;50.848;4.584;2024-01-15T07:31:58;2.40;99.90
22974;DHT22;11653;50.848;4.584;2024-01-15T07:34:24;2.30;99.90
22974;DHT22;11653;50.848;4.584;2024-01-15T07:36:50;2.30;99.90
22974;DHT22;11653;50.848;4.584;2024-01-15T07:39:15;2.30;99.90
22974;DHT22;11653;50.848;4.584;2024-01-15T07:41:41;2.30;99.90
22974;DHT22;11653;50.848;4.584;2024-01-15T07:44:06;2.30;99.90
22974;DHT22;11653;50.848;4.584;2024-01-15T07:46:32;2.20;99.90
22974;DHT22;11653;50.848;4.584;2024-01-15T07:48:58;2.30;99.90
22974;DHT22;11653;50.848;4.584;2024-01-15T07:51:24;2.30;99.90
22974;DHT22;11653;50.848;4.584;2024-01-15T07:53:53;2.30;99.90
22974;DHT22;11653;50.848;4.584;2024-01-15T07:56:19;2.30;99.90
22974;DHT22;11653;50.848;4.584;2024-01-15T07:58:44;2.30;99.90
22974;DHT22;11653;50.848;4.584;2024-01-15T08:01:10;2.30;99.90
22974;DHT22;11653;50.848;4.584;2024-01-15T08:03:36;2.40;99.90
22974;DHT22;11653;50.848;4.584;2024-01-15T08:06:02;2.40;99.90
22974;DHT22;11653;50.848;4.584;2024-01-15T08:08:27;2.50;99.90
22974;DHT22;11653;50.848;4.584;2024-01-15T08:10:53;2.40;99.90
22974;DHT22;11653;50.848;4.584;2024-01-15T08:13:18;2.50;99.90
22974;DHT22;11653;50.848;4.584;2024-01-15T08:15:45;2.50;99.90
22974;DHT22;11653;50.848;4.584;2024-01-15T08:18:11;2.50;99.90
22974;DHT22;11653;50.848;4.584;2024-01-15T08:20:37;2.50;99.90
22974;DHT22;11653;50.848;4.584;2024-01-15T08:23:03;2.50;99.90
22974;DHT22;11653;50.848;4.584;2024-01-15T08:25:29;2.60;99.90
22974;DHT22;11653;50.848;4.584;2024-01-15T08:27:56;2.60;99.90
22974;DHT22;11653;50.848;4.584;2024-01-15T08:30:23;2.60;99.90
22974;DHT22;11653;50.848;4.584;2024-01-15T08:32:55;2.50;99.90
22974;DHT22;11653;50.848;4.584;2024-01-15T08:35:21;2.50;99.90
22974;DHT22;11653;50.848;4.584;2024-01-15T08:37:52;2.50;99.90
22974;DHT22;11653;50.848;4.584;2024-01-15T08:40:18;2.70;99.90
22974;DHT22;11653;50.848;4.584;2024-01-15T08:42:44;2.70;99.90
22974;DHT22;11653;50.848;4.584;2024-01-15T08:45:11;2.70;99.90
22974;DHT22;11653;50.848;4.584;2024-01-15T08:47:37;2.70;99.90
22974;DHT22;11653;50.848;4.584;2024-01-15T08:50:03;2.70;99.90
22974;DHT22;11653;50.848;4.584;2024-01-15T08:52:29;2.70;99.90
22974;DHT22;11653;50.848;4.584;2024-01-15T08:54:58;2.70;99.90
22974;DHT22;11653;50.848;4.584;2024-01-15T08:57:24;2.80;99.90
22974;DHT22;11653;50.848;4.584;2024-01-15T08:59:50;2.80;99.90
22974;DHT22;11653;50.848;4.584;2024-01-15T09:02:16;2.80;99.90
22974;DHT22;11653;50.848;4.584;2024-01-15T09:04:42;2.90;99.90
22974;DHT22;11653;50.848;4.584;2024-01-15T09:07:08;3.00;99.90
22974;DHT22;11653;50.848;4.584;2024-01-15T09:09:33;3.10;99.90
22974;DHT22;11653;50.848;4.584;2024-01-15T09:12:02;3.20;99.90
22974;DHT22;11653;50.848;4.584;2024-01-15T09:14:28;3.20;99.90
22974;DHT22;11653;50.848;4.584;2024-01-15T09:16:54;3.20;99.90
22974;DHT22;11653;50.848;4.584;2024-01-15T09:19:20;3.30;99.90
22974;DHT22;11653;50.848;4.584;2024-01-15T09:21:45;3.40;99.90
22974;DHT22;11653;50.848;4.584;2024-01-15T09:24:11;3.40;99.90
22974;DHT22;11653;50.848;4.584;2024-01-15T09:26:37;3.30;99.90
22974;DHT22;11653;50.848;4.584;2024-01-15T09:29:02;3.20;99.90
22974;DHT22;11653;50.848;4.584;2024-01-15T09:31:28;3.20;99.90
22974;DHT22;11653;50.848;4.584;2024-01-15T09:33:54;3.30;99.90
22974;DHT22;11653;50.848;4.584;2024-01-15T09:36:24;3.20;99.90
22974;DHT22;11653;50.848;4.584;2024-01-15T09:38:49;3.30;99.90
22974;DHT22;11653;50.848;4.584;2024-01-15T09:41:15;3.30;99.90
22974;DHT22;11653;50.848;4.584;2024-01-15T09:43:41;3.30;99.90
22974;DHT22;11653;50.848;4.584;2024-01-15T09:46:07;3.40;99.90
22974;DHT22;11653;50.848;4.584;2024-01-15T09:48:33;3.50;99.90
22974;DHT22;11653;50.848;4.584;2024-01-15T09:51:01;3.50;99.90
22974;DHT22;11653;50.848;4.584;2024-01-15T09:53:27;3.60;99.90
22974;DHT22;11653;50.848;4.584;2024-01-15T09:55:53;3.60;99.90
22974;DHT22;11653;50.848;4.584;2024-01-15T09:58:19;3.60;99.90
22974;DHT22;11653;50.848;4.584;2024-01-15T10:00:47;3.70;99.90
22974;DHT22;11653;50.848;4.584;2024-01-15T10:03:15;3.70;99.90
22974;DHT22;11653;50.848;4.584;2024-01-15T10:05:41;3.80;99.90
22974;DHT22;11653;50.848;4.584;2024-01-15T10:08:07;3.80;99.90
22974;DHT22;11653;50.848;4.584;2024-01-15T10:10:36;3.90;99.90
22974;DHT22;11653;50.848;4.584;2024-01-15T10:13:04;4.00;99.90
22974;DHT22;11653;50.848;4.584;2024-01-15T10:15:34;4.00;99.90
22974;DHT22;11653;50.848;4.584;2024-01-15T10:18:02;3.90;99.90
22974;DHT22;11653;50.848;4.584;2024-01-15T10:20:28;4.00;99.90
22974;DHT22;11653;50.848;4.584;2024-01-15T10:22:53;4.00;99.90
22974;DHT22;11653;50.848;4.584;2024-01-15T10:25:20;4.10;99.90
22974;DHT22;11653;50.848;4.584;2024-01-15T10:28:02;4.10;99.90
22974;DHT22;11653;50.848;4.584;2024-01-15T10:30:28;4.50;99.90
22974;DHT22;11653;50.848;4.584;2024-01-15T10:33:01;5.20;99.90
22974;DHT22;11653;50.848;4.584;2024-01-15T10:35:31;5.90;99.90
22974;DHT22;11653;50.848;4.584;2024-01-15T10:37:57;6.40;99.90
22974;DHT22;11653;50.848;4.584;2024-01-15T10:40:23;6.90;99.90
22974;DHT22;11653;50.848;4.584;2024-01-15T10:42:49;7.40;99.90
22974;DHT22;11653;50.848;4.584;2024-01-15T10:45:15;7.40;99.90
22974;DHT22;11653;50.848;4.584;2024-01-15T10:47:42;7.70;99.90
22974;DHT22;11653;50.848;4.584;2024-01-15T10:50:08;7.80;99.90
22974;DHT22;11653;50.848;4.584;2024-01-15T10:52:39;8.00;99.90
22974;DHT22;11653;50.848;4.584;2024-01-15T10:55:09;7.70;99.90
22974;DHT22;11653;50.848;4.584;2024-01-15T10:57:38;7.80;99.90
22974;DHT22;11653;50.848;4.584;2024-01-15T11:00:05;8.00;99.90
22974;DHT22;11653;50.848;4.584;2024-01-15T11:02:35;8.10;99.90
22974;DHT22;11653;50.848;4.584;2024-01-15T11:05:01;8.00;99.90
22974;DHT22;11653;50.848;4.584;2024-01-15T11:07:27;7.70;99.90
22974;DHT22;11653;50.848;4.584;2024-01-15T11:09:55;7.30;99.90
22974;DHT22;11653;50.848;4.584;2024-01-15T11:12:20;7.10;99.90
22974;DHT22;11653;50.848;4.584;2024-01-15T11:14:47;7.20;99.90
22974;DHT22;11653;50.848;4.584;2024-01-15T11:17:15;7.10;99.90
22974;DHT22;11653;50.848;4.584;2024-01-15T11:19:45;7.00;99.90
22974;DHT22;11653;50.848;4.584;2024-01-15T11:25:03;6.30;99.90
22974;DHT22;11653;50.848;4.584;2024-01-15T11:27:51;6.20;99.90
22974;DHT22;11653;50.848;4.584;2024-01-15T11:30:17;5.80;99.90
22974;DHT22;11653;50.848;4.584;2024-01-15T11:32:45;5.50;99.90
22974;DHT22;11653;50.848;4.584;2024-01-15T11:35:13;5.40;99.90
22974;DHT22;11653;50.848;4.584;2024-01-15T11:40:19;5.20;99.90
22974;DHT22;11653;50.848;4.584;2024-01-15T11:42:46;5.00;99.90
22974;DHT22;11653;50.848;4.584;2024-01-15T11:45:16;4.90;99.90
22974;DHT22;11653;50.848;4.584;2024-01-15T11:48:12;5.00;99.90
22974;DHT22;11653;50.848;4.584;2024-01-15T11:50:43;5.40;99.90
22974;DHT22;11653;50.848;4.584;2024-01-15T11:53:33;5.60;99.90
22974;DHT22;11653;50.848;4.584;2024-01-15T11:56:03;6.00;99.90
22974;DHT22;11653;50.848;4.584;2024-01-15T11:58:31;6.60;99.90
22974;DHT22;11653;50.848;4.584;2024-01-15T12:00:57;7.00;99.90
22974;DHT22;11653;50.848;4.584;2024-01-15T12:03:24;7.60;99.90
22974;DHT22;11653;50.848;4.584;2024-01-15T12:05:52;8.10;99.90
22974;DHT22;11653;50.848;4.584;2024-01-15T12:08:26;7.80;99.90
22974;DHT22;11653;50.848;4.584;2024-01-15T12:10:53;7.20;99.90
22974;DHT22;11653;50.848;4.584;2024-01-15T12:13:20;6.70;99.90
22974;DHT22;11653;50.848;4.584;2024-01-15T12:15:47;6.50;99.90
22974;DHT22;11653;50.848;4.584;2024-01-15T12:18:15;6.40;99.90
22974;DHT22;11653;50.848;4.584;2024-01-15T12:20:42;6.10;99.90
22974;DHT22;11653;50.848;4.584;2024-01-15T12:23:08;5.70;99.90
22974;DHT22;11653;50.848;4.584;2024-01-15T12:25:34;5.50;99.90
22974;DHT22;11653;50.848;4.584;2024-01-15T12:28:01;5.80;99.90
22974;DHT22;11653;50.848;4.584;2024-01-15T12:30:27;6.10;99.90
22974;DHT22;11653;50.848;4.584;2024-01-15T12:32:54;6.50;99.90
22974;DHT22;11653;50.848;4.584;2024-01-15T12:35:20;6.70;99.90
22974;DHT22;11653;50.848;4.584;2024-01-15T12:37:45;6.70;99.90
22974;DHT22;11653;50.848;4.584;2024-01-15T12:40:13;6.50;99.90
22974;DHT22;11653;50.848;4.584;2024-01-15T12:42:40;6.10;99.90
22974;DHT22;11653;50.848;4.584;2024-01-15T12:45:09;6.10;99.90
22974;DHT22;11653;50.848;4.584;2024-01-15T12:47:35;6.10;99.90
22974;DHT22;11653;50.848;4.584;2024-01-15T12:50:01;6.00;99.90
22974;DHT22;11653;50.848;4.584;2024-01-15T12:52:27;5.60;99.90
22974;DHT22;11653;50.848;4.584;2024-01-15T12:54:53;5.30;99.90
22974;DHT22;11653;50.848;4.584;2024-01-15T12:57:19;5.10;99.90
22974;DHT22;11653;50.848;4.584;2024-01-15T12:59:45;4.90;99.90
22974;DHT22;11653;50.848;4.584;2024-01-15T13:02:13;4.90;99.90
22974;DHT22;11653;50.848;4.584;2024-01-15T13:04:39;4.70;99.90
22974;DHT22;11653;50.848;4.584;2024-01-15T13:07:06;4.60;99.90
22974;DHT22;11653;50.848;4.584;2024-01-15T13:09:32;4.50;99.90
22974;DHT22;11653;50.848;4.584;2024-01-15T13:11:58;4.60;99.90
22974;DHT22;11653;50.848;4.584;2024-01-15T13:14:24;4.70;99.90
22974;DHT22;11653;50.848;4.584;2024-01-15T13:16:50;4.80;99.90
22974;DHT22;11653;50.848;4.584;2024-01-15T13:19:16;4.90;99.90
22974;DHT22;11653;50.848;4.584;2024-01-15T13:21:42;5.00;99.90
22974;DHT22;11653;50.848;4.584;2024-01-15T13:24:08;5.00;99.90
22974;DHT22;11653;50.848;4.584;2024-01-15T13:26:35;4.90;99.90
22974;DHT22;11653;50.848;4.584;2024-01-15T13:29:02;4.80;99.90
22974;DHT22;11653;50.848;4.584;2024-01-15T13:31:32;4.80;99.90
22974;DHT22;11653;50.848;4.584;2024-01-15T13:33:58;4.70;99.90
22974;DHT22;11653;50.848;4.584;2024-01-15T13:36:25;4.70;99.90
22974;DHT22;11653;50.848;4.584;2024-01-15T13:38:51;4.60;99.90
22974;DHT22;11653;50.848;4.584;2024-01-15T13:41:18;4.50;99.90
22974;DHT22;11653;50.848;4.584;2024-01-15T13:43:54;4.50;99.90
22974;DHT22;11653;50.848;4.584;2024-01-15T13:46:26;4.40;99.90
22974;DHT22;11653;50.848;4.584;2024-01-15T13:48:55;4.50;99.90
22974;DHT22;11653;50.848;4.584;2024-01-15T13:51:24;4.50;99.90
22974;DHT22;11653;50.848;4.584;2024-01-15T13:53:50;4.30;99.90
22974;DHT22;11653;50.848;4.584;2024-01-15T13:56:16;4.30;99.90
22974;DHT22;11653;50.848;4.584;2024-01-15T13:58:42;4.30;99.90
22974;DHT22;11653;50.848;4.584;2024-01-15T14:01:09;4.20;99.90
22974;DHT22;11653;50.848;4.584;2024-01-15T14:03:34;4.00;99.90
22974;DHT22;11653;50.848;4.584;2024-01-15T14:06:01;3.80;99.90
22974;DHT22;11653;50.848;4.584;2024-01-15T14:08:29;3.60;99.90
22974;DHT22;11653;50.848;4.584;2024-01-15T14:10:54;3.50;99.90
22974;DHT22;11653;50.848;4.584;2024-01-15T14:13:22;3.40;99.90
22974;DHT22;11653;50.848;4.584;2024-01-15T14:15:48;3.30;99.90
22974;DHT22;11653;50.848;4.584;2024-01-15T14:18:16;3.30;99.90
22974;DHT22;11653;50.848;4.584;2024-01-15T14:20:41;3.30;99.90
22974;DHT22;11653;50.848;4.584;2024-01-15T14:23:08;3.40;99.90
22974;DHT22;11653;50.848;4.584;2024-01-15T14:25:33;3.40;99.90
22974;DHT22;11653;50.848;4.584;2024-01-15T14:28:00;3.40;99.90
22974;DHT22;11653;50.848;4.584;2024-01-15T14:30:25;3.40;99.90
22974;DHT22;11653;50.848;4.584;2024-01-15T14:32:51;3.30;99.90
22974;DHT22;11653;50.848;4.584;2024-01-15T14:35:16;3.30;99.90
22974;DHT22;11653;50.848;4.584;2024-01-15T14:37:42;3.30;99.90
22974;DHT22;11653;50.848;4.584;2024-01-15T14:40:08;3.30;99.90
22974;DHT22;11653;50.848;4.584;2024-01-15T14:42:35;3.40;99.90
22974;DHT22;11653;50.848;4.584;2024-01-15T14:45:04;3.30;99.90
22974;DHT22;11653;50.848;4.584;2024-01-15T14:47:37;3.20;99.90
22974;DHT22;11653;50.848;4.584;2024-01-15T14:50:03;3.10;99.90
22974;DHT22;11653;50.848;4.584;2024-01-15T14:52:29;3.10;99.90
22974;DHT22;11653;50.848;4.584;2024-01-15T14:54:54;3.10;99.90
22974;DHT22;11653;50.848;4.584;2024-01-15T14:57:20;3.20;99.90
22974;DHT22;11653;50.848;4.584;2024-01-15T14:59:45;3.30;99.90
22974;DHT22;11653;50.848;4.584;2024-01-15T15:02:11;3.30;99.90
22974;DHT22;11653;50.848;4.584;2024-01-15T15:04:37;3.20;99.90
22974;DHT22;11653;50.848;4.584;2024-01-15T15:07:03;3.10;99.90
22974;DHT22;11653;50.848;4.584;2024-01-15T15:09:28;3.00;99.90
22974;DHT22;11653;50.848;4.584;2024-01-15T15:11:54;2.90;99.90
22974;DHT22;11653;50.848;4.584;2024-01-15T15:14:20;2.80;99.90
22974;DHT22;11653;50.848;4.584;2024-01-15T15:16:45;2.80;99.90
22974;DHT22;11653;50.848;4.584;2024-01-15T15:19:12;2.70;99.90
22974;DHT22;11653;50.848;4.584;2024-01-15T15:21:38;2.60;99.90
22974;DHT22;11653;50.848;4.584;2024-01-15T15:24:03;2.50;99.90
22974;DHT22;11653;50.848;4.584;2024-01-15T15:26:29;2.50;99.90
22974;DHT22;11653;50.848;4.584;2024-01-15T15:28:55;2.50;99.90
22974;DHT22;11653;50.848;4.584;2024-01-15T15:31:20;2.60;99.90
22974;DHT22;11653;50.848;4.584;2024-01-15T15:33:46;2.60;99.90
22974;DHT22;11653;50.848;4.584;2024-01-15T15:36:12;2.70;99.90
22974;DHT22;11653;50.848;4.584;2024-01-15T15:38:37;2.70;99.90
22974;DHT22;11653;50.848;4.584;2024-01-15T15:41:03;2.60;99.90
22974;DHT22;11653;50.848;4.584;2024-01-15T15:43:29;2.60;99.90
22974;DHT22;11653;50.848;4.584;2024-01-15T15:45:56;2.60;99.90